Niles, Mississippi
Current Conditions -  °F | °C
As of 2:35 AM on Saturday 29 Nov 2014 (Local Time) from KRNV Reporting Station
Scattered Clouds Scattered Clouds  
Wind Chill: 39°   Ceiling: Unl
Heat Index: 45°   Visibility: 10mi
Dew Point: 38°   Wind: 10mph
Humidity: 77%   Direction: 180°S
Pressure: 30.11"   Gusts: NA
Location:  33.8277°N, 90.9559°W
Report Text: KRNV 290835Z AUTO 18009KT 10SM SCT042 07/03 A3011 RMK AO2 T00700032
Loading
Personal Weather Stations






























Interactive Weather Map New forecast layout! Learn more

10-Day Weather Forecast

Advertisements
Track Severe Weather on mobile